sensor_id;sensor_type;location;lat;lon;timestamp;P1;durP1;ratioP1;P2;durP2;ratioP2
73823;SDS011;62154;54.914;73.444;2023-04-29T14:58:34;51.55;;;32.88;;
73823;SDS011;62154;54.914;73.444;2023-04-29T15:01:02;47.83;;;30.95;;
73823;SDS011;62154;54.914;73.444;2023-04-29T15:03:40;124.82;;;64.38;;
73823;SDS011;62154;54.914;73.444;2023-04-29T15:06:19;77.08;;;41.53;;
73823;SDS011;62154;54.914;73.444;2023-04-29T15:08:46;59.97;;;36.50;;
73823;SDS011;62154;54.914;73.444;2023-04-29T15:11:16;65.80;;;36.78;;
73823;SDS011;62154;54.914;73.444;2023-04-29T15:13:47;57.33;;;37.05;;
73823;SDS011;62154;54.914;73.444;2023-04-29T15:16:17;50.42;;;32.20;;
73823;SDS011;62154;54.914;73.444;2023-04-29T15:18:44;69.15;;;38.90;;
73823;SDS011;62154;54.914;73.444;2023-04-29T15:21:11;64.43;;;42.70;;
73823;SDS011;62154;54.914;73.444;2023-04-29T15:23:38;70.05;;;43.67;;
73823;SDS011;62154;54.914;73.444;2023-04-29T15:26:05;59.25;;;35.20;;
73823;SDS011;62154;54.914;73.444;2023-04-29T15:28:33;62.75;;;38.20;;
73823;SDS011;62154;54.914;73.444;2023-04-29T15:31:00;71.10;;;40.83;;
73823;SDS011;62154;54.914;73.444;2023-04-29T15:33:40;53.53;;;31.35;;
73823;SDS011;62154;54.914;73.444;2023-04-29T15:36:07;62.47;;;35.55;;
73823;SDS011;62154;54.914;73.444;2023-04-29T15:38:37;62.17;;;35.28;;
73823;SDS011;62154;54.914;73.444;2023-04-29T15:41:06;60.65;;;33.80;;
73823;SDS011;62154;54.914;73.444;2023-04-29T15:43:33;52.50;;;31.15;;
73823;SDS011;62154;54.914;73.444;2023-04-29T15:46:06;48.53;;;31.13;;
73823;SDS011;62154;54.914;73.444;2023-04-29T15:48:32;47.65;;;29.00;;
73823;SDS011;62154;54.914;73.444;2023-04-29T15:50:59;54.17;;;31.40;;
73823;SDS011;62154;54.914;73.444;2023-04-29T15:53:26;49.05;;;29.08;;
73823;SDS011;62154;54.914;73.444;2023-04-29T15:55:53;54.70;;;30.88;;
73823;SDS011;62154;54.914;73.444;2023-04-29T15:58:20;50.65;;;27.88;;
73823;SDS011;62154;54.914;73.444;2023-04-29T16:00:50;54.67;;;30.70;;
73823;SDS011;62154;54.914;73.444;2023-04-29T16:03:17;52.45;;;30.88;;
73823;SDS011;62154;54.914;73.444;2023-04-29T16:05:44;58.50;;;33.22;;
73823;SDS011;62154;54.914;73.444;2023-04-29T16:08:12;62.88;;;33.70;;
73823;SDS011;62154;54.914;73.444;2023-04-29T16:10:38;67.07;;;34.47;;
73823;SDS011;62154;54.914;73.444;2023-04-29T16:13:06;50.53;;;29.38;;
73823;SDS011;62154;54.914;73.444;2023-04-29T16:15:39;48.58;;;27.08;;
73823;SDS011;62154;54.914;73.444;2023-04-29T16:18:06;51.65;;;29.40;;
73823;SDS011;62154;54.914;73.444;2023-04-29T16:20:33;56.33;;;29.63;;
73823;SDS011;62154;54.914;73.444;2023-04-29T16:23:00;43.80;;;26.13;;
73823;SDS011;62154;54.914;73.444;2023-04-29T16:25:27;40.65;;;25.40;;
73823;SDS011;62154;54.914;73.444;2023-04-29T16:27:54;44.67;;;26.83;;
73823;SDS011;62154;54.914;73.444;2023-04-29T16:30:22;50.78;;;29.05;;
73823;SDS011;62154;54.914;73.444;2023-04-29T16:32:54;58.63;;;31.38;;
73823;SDS011;62154;54.914;73.444;2023-04-29T16:35:21;54.17;;;30.20;;
73823;SDS011;62154;54.914;73.444;2023-04-29T16:37:51;49.75;;;28.80;;
73823;SDS011;62154;54.914;73.444;2023-04-29T16:40:18;47.10;;;28.80;;
73823;SDS011;62154;54.914;73.444;2023-04-29T16:42:46;361.77;;;164.15;;
73823;SDS011;62154;54.914;73.444;2023-04-29T16:45:13;218.77;;;114.07;;
73823;SDS011;62154;54.914;73.444;2023-04-29T16:47:40;83.60;;;45.65;;
73823;SDS011;62154;54.914;73.444;2023-04-29T16:50:07;77.07;;;39.20;;
73823;SDS011;62154;54.914;73.444;2023-04-29T16:52:35;83.38;;;43.85;;
73823;SDS011;62154;54.914;73.444;2023-04-29T16:55:02;96.72;;;47.30;;
73823;SDS011;62154;54.914;73.444;2023-04-29T16:57:29;180.13;;;66.20;;
73823;SDS011;62154;54.914;73.444;2023-04-29T16:59:57;112.78;;;48.75;;
73823;SDS011;62154;54.914;73.444;2023-04-29T17:02:24;198.82;;;74.07;;
73823;SDS011;62154;54.914;73.444;2023-04-29T17:04:52;427.48;;;176.38;;
73823;SDS011;62154;54.914;73.444;2023-04-29T17:07:19;239.02;;;97.45;;
73823;SDS011;62154;54.914;73.444;2023-04-29T17:09:46;81.93;;;39.95;;
73823;SDS011;62154;54.914;73.444;2023-04-29T17:12:13;86.35;;;41.28;;
73823;SDS011;62154;54.914;73.444;2023-04-29T17:14:40;115.93;;;55.50;;
73823;SDS011;62154;54.914;73.444;2023-04-29T17:17:17;94.00;;;42.00;;
73823;SDS011;62154;54.914;73.444;2023-04-29T17:19:44;74.47;;;36.53;;
73823;SDS011;62154;54.914;73.444;2023-04-29T17:22:15;88.68;;;40.25;;
73823;SDS011;62154;54.914;73.444;2023-04-29T17:24:45;98.60;;;43.88;;
73823;SDS011;62154;54.914;73.444;2023-04-29T17:27:12;143.32;;;61.05;;
73823;SDS011;62154;54.914;73.444;2023-04-29T17:29:39;153.70;;;71.03;;
73823;SDS011;62154;54.914;73.444;2023-04-29T17:32:06;270.20;;;122.72;;
73823;SDS011;62154;54.914;73.444;2023-04-29T17:34:42;286.00;;;127.57;;
73823;SDS011;62154;54.914;73.444;2023-04-29T17:37:09;240.65;;;105.40;;
73823;SDS011;62154;54.914;73.444;2023-04-29T17:39:36;198.90;;;85.97;;
73823;SDS011;62154;54.914;73.444;2023-04-29T17:42:03;149.57;;;70.57;;
73823;SDS011;62154;54.914;73.444;2023-04-29T17:44:30;76.55;;;39.55;;
73823;SDS011;62154;54.914;73.444;2023-04-29T17:46:57;78.18;;;44.53;;
73823;SDS011;62154;54.914;73.444;2023-04-29T17:49:24;71.25;;;38.53;;
73823;SDS011;62154;54.914;73.444;2023-04-29T17:51:51;60.80;;;31.17;;
73823;SDS011;62154;54.914;73.444;2023-04-29T17:54:21;65.45;;;32.90;;
73823;SDS011;62154;54.914;73.444;2023-04-29T17:56:48;65.95;;;32.85;;
73823;SDS011;62154;54.914;73.444;2023-04-29T17:59:15;73.00;;;36.67;;
73823;SDS011;62154;54.914;73.444;2023-04-29T18:01:42;96.63;;;47.97;;
73823;SDS011;62154;54.914;73.444;2023-04-29T18:04:08;69.55;;;37.53;;
73823;SDS011;62154;54.914;73.444;2023-04-29T18:06:35;65.72;;;32.92;;
73823;SDS011;62154;54.914;73.444;2023-04-29T18:09:02;51.72;;;26.95;;
73823;SDS011;62154;54.914;73.444;2023-04-29T18:11:30;50.97;;;26.10;;
73823;SDS011;62154;54.914;73.444;2023-04-29T18:13:59;65.90;;;31.20;;
73823;SDS011;62154;54.914;73.444;2023-04-29T18:16:26;57.65;;;26.20;;
73823;SDS011;62154;54.914;73.444;2023-04-29T18:18:53;61.65;;;28.23;;
73823;SDS011;62154;54.914;73.444;2023-04-29T18:21:26;69.53;;;34.33;;
73823;SDS011;62154;54.914;73.444;2023-04-29T18:23:53;65.75;;;29.83;;
73823;SDS011;62154;54.914;73.444;2023-04-29T18:26:25;80.03;;;37.53;;
73823;SDS011;62154;54.914;73.444;2023-04-29T18:28:52;137.27;;;65.70;;
73823;SDS011;62154;54.914;73.444;2023-04-29T18:31:19;62.90;;;27.77;;
73823;SDS011;62154;54.914;73.444;2023-04-29T18:33:48;44.58;;;19.13;;
73823;SDS011;62154;54.914;73.444;2023-04-29T18:36:15;40.03;;;19.60;;
73823;SDS011;62154;54.914;73.444;2023-04-29T18:38:44;50.03;;;20.20;;
73823;SDS011;62154;54.914;73.444;2023-04-29T18:41:11;51.20;;;21.98;;
73823;SDS011;62154;54.914;73.444;2023-04-29T18:43:39;53.47;;;23.55;;
73823;SDS011;62154;54.914;73.444;2023-04-29T18:46:11;51.15;;;22.98;;
73823;SDS011;62154;54.914;73.444;2023-04-29T18:48:38;38.60;;;21.85;;
73823;SDS011;62154;54.914;73.444;2023-04-29T18:51:06;56.78;;;25.30;;
73823;SDS011;62154;54.914;73.444;2023-04-29T18:53:33;55.78;;;25.92;;
73823;SDS011;62154;54.914;73.444;2023-04-29T18:56:09;57.20;;;27.98;;
73823;SDS011;62154;54.914;73.444;2023-04-29T18:58:36;66.53;;;28.70;;
73823;SDS011;62154;54.914;73.444;2023-04-29T19:01:05;114.95;;;39.08;;
73823;SDS011;62154;54.914;73.444;2023-04-29T19:03:32;89.47;;;34.42;;
73823;SDS011;62154;54.914;73.444;2023-04-29T19:05:59;173.38;;;56.50;;
73823;SDS011;62154;54.914;73.444;2023-04-29T19:08:31;171.60;;;55.22;;
73823;SDS011;62154;54.914;73.444;2023-04-29T19:10:58;144.45;;;49.85;;
73823;SDS011;62154;54.914;73.444;2023-04-29T19:13:35;112.13;;;41.05;;
73823;SDS011;62154;54.914;73.444;2023-04-29T19:16:02;94.03;;;36.13;;
73823;SDS011;62154;54.914;73.444;2023-04-29T19:18:29;85.88;;;33.78;;
73823;SDS011;62154;54.914;73.444;2023-04-29T19:20:56;92.97;;;36.45;;
73823;SDS011;62154;54.914;73.444;2023-04-29T19:23:23;78.50;;;33.53;;
73823;SDS011;62154;54.914;73.444;2023-04-29T19:25:51;69.15;;;31.50;;
73823;SDS011;62154;54.914;73.444;2023-04-29T19:28:17;72.22;;;31.40;;
73823;SDS011;62154;54.914;73.444;2023-04-29T19:30:45;74.00;;;31.98;;
73823;SDS011;62154;54.914;73.444;2023-04-29T19:33:11;64.05;;;30.65;;
73823;SDS011;62154;54.914;73.444;2023-04-29T19:35:40;67.43;;;30.73;;
73823;SDS011;62154;54.914;73.444;2023-04-29T19:38:11;69.65;;;32.75;;
73823;SDS011;62154;54.914;73.444;2023-04-29T19:40:41;69.47;;;33.10;;
73823;SDS011;62154;54.914;73.444;2023-04-29T19:43:07;69.70;;;33.47;;
73823;SDS011;62154;54.914;73.444;2023-04-29T19:45:34;81.45;;;40.00;;
73823;SDS011;62154;54.914;73.444;2023-04-29T19:48:01;123.05;;;52.63;;
73823;SDS011;62154;54.914;73.444;2023-04-29T19:50:29;84.63;;;41.38;;
73823;SDS011;62154;54.914;73.444;2023-04-29T19:52:57;81.57;;;39.45;;
73823;SDS011;62154;54.914;73.444;2023-04-29T19:55:24;106.60;;;46.55;;
73823;SDS011;62154;54.914;73.444;2023-04-29T19:58:01;122.03;;;55.08;;
73823;SDS011;62154;54.914;73.444;2023-04-29T20:00:27;132.80;;;56.58;;
73823;SDS011;62154;54.914;73.444;2023-04-29T20:02:54;134.30;;;57.67;;
73823;SDS011;62154;54.914;73.444;2023-04-29T20:05:21;141.98;;;54.92;;
73823;SDS011;62154;54.914;73.444;2023-04-29T20:07:49;141.45;;;62.08;;
73823;SDS011;62154;54.914;73.444;2023-04-29T20:10:16;139.63;;;58.35;;
73823;SDS011;62154;54.914;73.444;2023-04-29T20:12:43;122.10;;;56.67;;
73823;SDS011;62154;54.914;73.444;2023-04-29T20:15:20;111.95;;;51.72;;
73823;SDS011;62154;54.914;73.444;2023-04-29T20:17:47;99.38;;;49.65;;
73823;SDS011;62154;54.914;73.444;2023-04-29T20:20:14;98.03;;;47.72;;
73823;SDS011;62154;54.914;73.444;2023-04-29T20:22:41;99.97;;;47.28;;
73823;SDS011;62154;54.914;73.444;2023-04-29T20:25:12;91.70;;;45.38;;
73823;SDS011;62154;54.914;73.444;2023-04-29T20:27:39;109.63;;;55.35;;
73823;SDS011;62154;54.914;73.444;2023-04-29T20:30:06;100.07;;;48.53;;
73823;SDS011;62154;54.914;73.444;2023-04-29T20:32:35;91.35;;;45.60;;
73823;SDS011;62154;54.914;73.444;2023-04-29T20:35:03;97.93;;;47.28;;
73823;SDS011;62154;54.914;73.444;2023-04-29T20:37:30;82.05;;;43.30;;
73823;SDS011;62154;54.914;73.444;2023-04-29T20:39:57;78.83;;;40.13;;
73823;SDS011;62154;54.914;73.444;2023-04-29T20:42:35;74.63;;;39.75;;
73823;SDS011;62154;54.914;73.444;2023-04-29T20:45:02;77.13;;;37.90;;
73823;SDS011;62154;54.914;73.444;2023-04-29T20:47:30;67.03;;;36.95;;
73823;SDS011;62154;54.914;73.444;2023-04-29T20:49:56;68.40;;;37.92;;
73823;SDS011;62154;54.914;73.444;2023-04-29T20:52:23;72.88;;;36.83;;
73823;SDS011;62154;54.914;73.444;2023-04-29T20:54:52;72.93;;;35.25;;
73823;SDS011;62154;54.914;73.444;2023-04-29T20:57:20;72.70;;;35.75;;
73823;SDS011;62154;54.914;73.444;2023-04-29T20:59:47;72.28;;;35.35;;
73823;SDS011;62154;54.914;73.444;2023-04-29T21:02:21;68.13;;;34.97;;
73823;SDS011;62154;54.914;73.444;2023-04-29T21:04:48;70.75;;;36.38;;
73823;SDS011;62154;54.914;73.444;2023-04-29T21:07:18;72.57;;;35.92;;
73823;SDS011;62154;54.914;73.444;2023-04-29T21:09:55;62.95;;;34.70;;
73823;SDS011;62154;54.914;73.444;2023-04-29T21:12:22;67.20;;;36.15;;
73823;SDS011;62154;54.914;73.444;2023-04-29T21:14:50;61.72;;;35.83;;
73823;SDS011;62154;54.914;73.444;2023-04-29T21:17:20;67.40;;;33.08;;
73823;SDS011;62154;54.914;73.444;2023-04-29T21:19:46;65.54;;;32.93;;
73823;SDS011;62154;54.914;73.444;2023-04-29T21:22:13;68.82;;;32.88;;
73823;SDS011;62154;54.914;73.444;2023-04-29T21:24:40;79.45;;;34.78;;
73823;SDS011;62154;54.914;73.444;2023-04-29T21:27:07;69.32;;;34.30;;
73823;SDS011;62154;54.914;73.444;2023-04-29T21:29:36;60.72;;;32.25;;
73823;SDS011;62154;54.914;73.444;2023-04-29T21:32:06;56.90;;;31.50;;
73823;SDS011;62154;54.914;73.444;2023-04-29T21:34:39;60.30;;;31.48;;
73823;SDS011;62154;54.914;73.444;2023-04-29T21:37:08;66.53;;;32.80;;
73823;SDS011;62154;54.914;73.444;2023-04-29T21:39:35;56.30;;;31.10;;
73823;SDS011;62154;54.914;73.444;2023-04-29T21:42:02;63.67;;;32.15;;
73823;SDS011;62154;54.914;73.444;2023-04-29T21:44:33;61.50;;;33.28;;
73823;SDS011;62154;54.914;73.444;2023-04-29T21:47:10;57.40;;;31.40;;
73823;SDS011;62154;54.914;73.444;2023-04-29T21:49:37;64.82;;;31.60;;
73823;SDS011;62154;54.914;73.444;2023-04-29T21:52:04;56.75;;;30.88;;
73823;SDS011;62154;54.914;73.444;2023-04-29T21:54:31;51.15;;;30.05;;
73823;SDS011;62154;54.914;73.444;2023-04-29T21:56:58;57.33;;;30.48;;
73823;SDS011;62154;54.914;73.444;2023-04-29T21:59:35;56.05;;;29.48;;
73823;SDS011;62154;54.914;73.444;2023-04-29T22:02:12;58.30;;;32.50;;
73823;SDS011;62154;54.914;73.444;2023-04-29T22:04:48;54.47;;;30.20;;
73823;SDS011;62154;54.914;73.444;2023-04-29T22:07:16;57.20;;;29.13;;
73823;SDS011;62154;54.914;73.444;2023-04-29T22:09:47;55.10;;;30.42;;
73823;SDS011;62154;54.914;73.444;2023-04-29T22:12:17;53.17;;;29.98;;
73823;SDS011;62154;54.914;73.444;2023-04-29T22:14:45;53.60;;;29.40;;
73823;SDS011;62154;54.914;73.444;2023-04-29T22:17:12;49.60;;;27.70;;
73823;SDS011;62154;54.914;73.444;2023-04-29T22:19:49;50.08;;;30.00;;
73823;SDS011;62154;54.914;73.444;2023-04-29T22:22:22;54.67;;;29.90;;
73823;SDS011;62154;54.914;73.444;2023-04-29T22:24:48;50.40;;;28.10;;
73823;SDS011;62154;54.914;73.444;2023-04-29T22:27:25;50.63;;;28.05;;
73823;SDS011;62154;54.914;73.444;2023-04-29T22:29:52;56.33;;;30.63;;
73823;SDS011;62154;54.914;73.444;2023-04-29T22:32:19;55.05;;;30.90;;
73823;SDS011;62154;54.914;73.444;2023-04-29T22:34:46;54.38;;;29.30;;
73823;SDS011;62154;54.914;73.444;2023-04-29T22:37:17;48.05;;;28.92;;
73823;SDS011;62154;54.914;73.444;2023-04-29T22:39:49;50.45;;;27.88;;
73823;SDS011;62154;54.914;73.444;2023-04-29T22:42:22;49.00;;;27.33;;
73823;SDS011;62154;54.914;73.444;2023-04-29T22:44:49;51.47;;;28.08;;
73823;SDS011;62154;54.914;73.444;2023-04-29T22:47:16;57.50;;;29.73;;
73823;SDS011;62154;54.914;73.444;2023-04-29T22:49:47;59.53;;;26.98;;
73823;SDS011;62154;54.914;73.444;2023-04-29T22:52:14;53.88;;;28.08;;
73823;SDS011;62154;54.914;73.444;2023-04-29T22:54:47;52.67;;;29.35;;
73823;SDS011;62154;54.914;73.444;2023-04-29T22:57:13;57.63;;;28.23;;
73823;SDS011;62154;54.914;73.444;2023-04-29T22:59:41;60.03;;;29.25;;
73823;SDS011;62154;54.914;73.444;2023-04-29T23:02:12;62.40;;;29.27;;
73823;SDS011;62154;54.914;73.444;2023-04-29T23:04:39;57.03;;;29.10;;
73823;SDS011;62154;54.914;73.444;2023-04-29T23:07:06;51.55;;;27.00;;
73823;SDS011;62154;54.914;73.444;2023-04-29T23:09:32;48.85;;;28.17;;
73823;SDS011;62154;54.914;73.444;2023-04-29T23:11:59;51.25;;;27.08;;
73823;SDS011;62154;54.914;73.444;2023-04-29T23:14:37;54.83;;;27.55;;
73823;SDS011;62154;54.914;73.444;2023-04-29T23:17:15;49.80;;;28.20;;
73823;SDS011;62154;54.914;73.444;2023-04-29T23:19:42;52.03;;;28.73;;
73823;SDS011;62154;54.914;73.444;2023-04-29T23:22:12;60.42;;;28.38;;
73823;SDS011;62154;54.914;73.444;2023-04-29T23:24:39;51.97;;;27.02;;
73823;SDS011;62154;54.914;73.444;2023-04-29T23:27:17;52.97;;;29.35;;
73823;SDS011;62154;54.914;73.444;2023-04-29T23:29:44;50.65;;;28.08;;
73823;SDS011;62154;54.914;73.444;2023-04-29T23:32:10;56.53;;;27.48;;
73823;SDS011;62154;54.914;73.444;2023-04-29T23:34:50;72.22;;;29.15;;
73823;SDS011;62154;54.914;73.444;2023-04-29T23:37:17;47.13;;;27.15;;
73823;SDS011;62154;54.914;73.444;2023-04-29T23:39:54;66.15;;;32.08;;
73823;SDS011;62154;54.914;73.444;2023-04-29T23:42:32;54.53;;;28.90;;
73823;SDS011;62154;54.914;73.444;2023-04-29T23:44:59;57.13;;;30.52;;
73823;SDS011;62154;54.914;73.444;2023-04-29T23:47:26;54.05;;;28.10;;
73823;SDS011;62154;54.914;73.444;2023-04-29T23:49:53;52.17;;;29.17;;
73823;SDS011;62154;54.914;73.444;2023-04-29T23:52:20;53.90;;;28.40;;
73823;SDS011;62154;54.914;73.444;2023-04-29T23:54:49;56.97;;;30.38;;
73823;SDS011;62154;54.914;73.444;2023-04-29T23:57:16;60.80;;;30.38;;
73823;SDS011;62154;54.914;73.444;2023-04-29T23:59:54;60.03;;;30.88;;
